»·PEaware :: N902SQ KBFL-KRAL

N902SQ :: KBFL-KRAL

FLIGHT INFORMATION

Flight Status: Arrived
Operator: Privately registered:
United States
More flights under this callsign
Pilot: Gabor H. (24209)
Aircraft: SOCATA TBM-900
(TBM9)
More flights by this aircraft type
Origin: KBFL Meadows
United States
Destination: KRAL Riverside Mun
United States
More flights between these airports :: More routes between these airports
Route: OILDA1 EHF V197 PMD ZIGGY7
File this flight plan on PilotEdge
Remarks:
Altitude:
(Current/Filed)
17,000ft
Speed:
(Current/Filed)
295kts
Departed: 14-Nov-23 12:26 PM
Arrived: 14-Nov-23 01:06 PM
Distance/Time
Traveled:
119nm/0:40
Distance/Time
To Go:
Arrived

Flight Plot

Page will automatically refresh every two minutes.

Flight plan parsing failed; only flown route is shown


Map Options




Map Legend


Flown Route
Filed Route
Departure Airport
Arrival Airport
Navaid (VOR, NDB)
Fix

Horizontal Profiles

Position Reports

Time Latitude Longitude Heading Altitude Ground
Speed
14-Nov-23 11:58 35.426172 -119.041057 92 492ft 0kts
14-Nov-23 11:59 35.426172 -119.041057 92 492ft 0kts
14-Nov-23 12:00 35.426172 -119.041057 92 492ft 0kts
14-Nov-23 12:01 35.426172 -119.041057 92 492ft 0kts
14-Nov-23 12:02 35.426172 -119.041057 92 492ft 0kts
14-Nov-23 12:03 35.426172 -119.041057 92 492ft 0kts
14-Nov-23 12:04 35.426172 -119.041057 92 492ft 0kts
14-Nov-23 12:05 35.426172 -119.041057 92 492ft 0kts
14-Nov-23 12:06 35.426172 -119.041057 92 492ft 0kts
14-Nov-23 12:07 35.426172 -119.041058 92 492ft 0kts
14-Nov-23 12:08 35.426172 -119.041058 92 492ft 0kts
14-Nov-23 12:09 35.426172 -119.041058 92 492ft 0kts
14-Nov-23 12:10 35.426172 -119.041058 92 492ft 0kts
14-Nov-23 12:11 35.426172 -119.041058 92 492ft 0kts
14-Nov-23 12:12 35.426172 -119.041058 92 492ft 0kts
14-Nov-23 12:13 35.426172 -119.041057 92 492ft 0kts
14-Nov-23 12:14 35.426172 -119.041057 92 492ft 0kts
14-Nov-23 12:15 35.426172 -119.041057 92 492ft 0kts
14-Nov-23 12:16 35.426172 -119.041057 92 492ft 0kts
14-Nov-23 12:17 35.426172 -119.041057 92 492ft 0kts
14-Nov-23 12:18 35.426172 -119.041057 92 492ft 0kts
14-Nov-23 12:19 35.426172 -119.041057 92 492ft 0kts
14-Nov-23 12:20 35.426172 -119.041057 92 492ft 0kts
14-Nov-23 12:21 35.426172 -119.041057 92 492ft 0kts
14-Nov-23 12:22 35.425658 -119.041296 264 490ft 8kts
14-Nov-23 12:23 35.425878 -119.044948 231 483ft 4kts
14-Nov-23 12:24 35.425405 -119.045583 240 480ft 14kts
14-Nov-23 12:25 35.442992 -119.067726 313 1228ft 135kts
14-Nov-23 12:27 35.468016 -119.101009 313 3398ft 136kts
14-Nov-23 12:28 35.494717 -119.136564 312 5385ft 147kts
14-Nov-23 12:29 35.483058 -119.167702 192 7508ft 131kts
14-Nov-23 12:30 35.450312 -119.159941 137 9700ft 139kts
14-Nov-23 12:31 35.423292 -119.123937 140 11780ft 149kts
14-Nov-23 12:32 35.395428 -119.085767 141 13767ft 153kts
14-Nov-23 12:33 35.366894 -119.046480 143 15547ft 158kts
14-Nov-23 12:34 35.337195 -119.005701 143 17025ft 175kts
14-Nov-23 12:35 35.297148 -118.950659 139 17019ft 243kts
14-Nov-23 12:36 35.250352 -118.886257 138 17003ft 260kts
14-Nov-23 12:37 35.201552 -118.819360 138 17000ft 266kts
14-Nov-23 12:38 35.151450 -118.750827 138 17045ft 272kts
14-Nov-23 12:39 35.100670 -118.681501 138 17089ft 274kts
14-Nov-23 12:40 35.049568 -118.611878 138 17115ft 275kts
14-Nov-23 12:41 34.998104 -118.542908 139 17117ft 276kts
14-Nov-23 12:42 34.945952 -118.474364 139 17114ft 276kts
14-Nov-23 12:43 34.893558 -118.405652 139 17108ft 276kts
14-Nov-23 12:44 34.841286 -118.337253 139 17102ft 278kts
14-Nov-23 12:45 34.788465 -118.268219 139 17038ft 278kts
14-Nov-23 12:46 34.735851 -118.199632 139 17062ft 277kts
14-Nov-23 12:47 34.683336 -118.131278 139 17073ft 276kts
14-Nov-23 12:48 34.631146 -118.062994 134 17068ft 279kts
14-Nov-23 12:49 34.592811 -117.979248 124 17052ft 285kts
14-Nov-23 12:50 34.553998 -117.894285 124 16615ft 297kts
14-Nov-23 12:51 34.513434 -117.805677 123 15632ft 301kts
14-Nov-23 12:52 34.472394 -117.716316 123 14460ft 303kts
14-Nov-23 12:52 34.438288 -117.642216 122 13462ft 300kts
14-Nov-23 12:54 34.391043 -117.539808 122 12070ft 296kts
14-Nov-23 12:55 34.351976 -117.455388 121 11270ft 284kts
14-Nov-23 12:56 34.314196 -117.373923 120 10060ft 273kts
14-Nov-23 12:57 34.254793 -117.328930 166 8799ft 265kts
14-Nov-23 12:57 34.195763 -117.311185 165 8000ft 257kts
14-Nov-23 12:58 34.128540 -117.290669 165 6942ft 243kts
14-Nov-23 12:59 34.064533 -117.271461 165 5619ft 232kts
14-Nov-23 13:01 33.996244 -117.273318 211 4591ft 216kts
14-Nov-23 13:02 33.952397 -117.310580 220 3862ft 161kts
14-Nov-23 13:02 33.937075 -117.346654 268 3246ft 144kts
14-Nov-23 13:03 33.942725 -117.393604 286 1910ft 139kts
14-Nov-23 13:04 33.949125 -117.427234 283 985ft 91kts
14-Nov-23 13:05 33.950841 -117.440255 262 818ft 10kts
14-Nov-23 13:07 33.951002 -117.443116 114 818ft 11kts
14-Nov-23 13:07 33.950297 -117.442535 285 818ft 0kts
14-Nov-23 13:08 33.950297 -117.442535 285 818ft 0kts
14-Nov-23 13:09 33.950297 -117.442535 285 818ft 0kts
14-Nov-23 13:10 33.950297 -117.442535 285 818ft 0kts

Navigation Log

Ident Type
Flight plan parsing failed, navigation log unavailable